Perlee, Iowa
Current Conditions -  °F | °C
As of 3:35 PM on Thursday 18 Dec 2014 (Local Time) from KFFL Reporting Station
Overcast Overcast  
Wind Chill: 27°   Ceiling: 4200
Heat Index: 27°   Visibility: 10mi
Dew Point: 19°   Wind: 0mph
Humidity: 74%   Direction: NA
Pressure: 30.25"   Gusts: NA
Location:  40.9879°N, 91.8924°W
Report Text: KFFL 182135Z AUTO 00000KT 10SM OVC042 M03/M07 A3025 RMK AO2
Loading
Personal Weather Stations






























Interactive Weather Map New forecast layout! Learn more

10-Day Weather Forecast

Advertisements
Track Severe Weather on mobile